createdAt,value
2023-03-31T00:01:14.901Z,100518.70
2023-03-31T00:03:44.944Z,100510.59
2023-03-31T00:06:18.907Z,100504.40
2023-03-31T00:08:52.279Z,100495.42
2023-03-31T00:11:22.434Z,100490.70
2023-03-31T00:13:50.927Z,100484.97
2023-03-31T00:16:19.864Z,100483.16
2023-03-31T00:18:51.145Z,100480.58
2023-03-31T00:21:25.409Z,100475.83
2023-03-31T00:23:59.922Z,100470.17
2023-03-31T00:26:29.614Z,100453.45
2023-03-31T00:28:59.692Z,100447.65
2023-03-31T00:31:28.808Z,100443.81
2023-03-31T00:33:57.415Z,100448.77
2023-03-31T00:36:29.111Z,100442.13
2023-03-31T00:39:09.009Z,100442.19
2023-03-31T00:41:39.498Z,100443.71
2023-03-31T00:44:23.236Z,100443.03
2023-03-31T00:47:12.341Z,100435.09
2023-03-31T00:49:50.799Z,100428.09
2023-03-31T00:52:27.141Z,100417.55
2023-03-31T00:54:59.952Z,100420.53
2023-03-31T00:57:32.579Z,100426.93
2023-03-31T01:00:16.285Z,100429.21
2023-03-31T01:02:56.258Z,100430.20
2023-03-31T01:05:37.360Z,100427.52
2023-03-31T01:08:06.451Z,100423.80
2023-03-31T01:10:41.955Z,100416.85
2023-03-31T01:13:13.745Z,100409.92
2023-03-31T01:15:42.951Z,100407.54
2023-03-31T01:18:13.298Z,100406.63
2023-03-31T01:20:57.632Z,100397.24
2023-03-31T01:23:50.585Z,100392.91
2023-03-31T01:26:24.711Z,100386.63
2023-03-31T01:29:18.063Z,100389.38
2023-03-31T01:32:14.603Z,100385.91
2023-03-31T01:34:59.160Z,100384.96
2023-03-31T01:38:13.012Z,100381.48
2023-03-31T01:41:02.480Z,100378.12
2023-03-31T01:43:59.328Z,100377.98
2023-03-31T01:46:50.671Z,100378.40
2023-03-31T01:49:42.267Z,100372.13
2023-03-31T01:52:44.154Z,100368.02
2023-03-31T01:55:21.943Z,100363.82
2023-03-31T01:58:07.755Z,100366.00
2023-03-31T02:00:42.240Z,100359.91
2023-03-31T02:03:26.982Z,100357.96
2023-03-31T02:06:03.902Z,100353.55
2023-03-31T02:08:38.421Z,100357.19
2023-03-31T02:11:07.098Z,100354.44
2023-03-31T02:13:39.365Z,100349.84
2023-03-31T02:16:14.424Z,100350.11
2023-03-31T02:18:44.523Z,100346.83
2023-03-31T02:21:14.896Z,100344.25
2023-03-31T02:23:46.088Z,100339.34
2023-03-31T02:26:38.132Z,100331.39
2023-03-31T02:29:07.028Z,100327.75
2023-03-31T02:31:41.299Z,100331.23
2023-03-31T02:34:10.021Z,100334.75
2023-03-31T02:36:38.911Z,100331.27
2023-03-31T02:39:27.260Z,100331.66
2023-03-31T02:41:55.844Z,100329.89
2023-03-31T02:44:25.146Z,100328.36
2023-03-31T02:46:54.658Z,100328.38
2023-03-31T02:49:22.909Z,100323.53
2023-03-31T02:52:13.338Z,100327.06
2023-03-31T02:55:16.419Z,100330.69
2023-03-31T02:57:59.750Z,100327.30
2023-03-31T03:00:46.561Z,100327.23
2023-03-31T03:03:21.029Z,100322.59
2023-03-31T03:06:08.686Z,100331.53
2023-03-31T03:09:13.857Z,100329.94
2023-03-31T03:12:00.462Z,100333.88
2023-03-31T03:14:40.086Z,100332.21
2023-03-31T03:17:14.691Z,100331.97
2023-03-31T03:19:43.417Z,100333.77
2023-03-31T03:22:11.696Z,100332.15
2023-03-31T03:24:40.094Z,100331.30
2023-03-31T03:27:08.455Z,100324.34
2023-03-31T03:29:36.629Z,100326.69
2023-03-31T03:32:04.908Z,100324.40
2023-03-31T03:34:33.320Z,100327.79
2023-03-31T03:37:01.767Z,100328.02
2023-03-31T03:39:30.047Z,100322.00
2023-03-31T03:41:58.738Z,100319.16
2023-03-31T03:44:27.382Z,100318.63
2023-03-31T03:46:55.700Z,100312.92
2023-03-31T03:49:24.070Z,100306.91
2023-03-31T03:51:52.962Z,100306.58
2023-03-31T03:54:21.457Z,100305.84
2023-03-31T03:56:49.790Z,100302.96
2023-03-31T03:59:18.445Z,100299.34
2023-03-31T04:01:46.930Z,100301.45
2023-03-31T04:04:15.667Z,100296.39
2023-03-31T04:06:43.943Z,100294.34
2023-03-31T04:09:12.045Z,100296.46
2023-03-31T04:11:40.599Z,100299.41
2023-03-31T04:14:08.980Z,100303.00
2023-03-31T04:16:38.666Z,100308.13
2023-03-31T04:19:07.178Z,100306.58
2023-03-31T04:21:35.648Z,100309.84
2023-03-31T04:24:07.101Z,100310.14
2023-03-31T04:26:45.010Z,100302.42
2023-03-31T04:29:16.736Z,100298.06
2023-03-31T04:31:45.259Z,100298.55
2023-03-31T04:34:15.584Z,100295.80
2023-03-31T04:36:47.964Z,100296.98
2023-03-31T04:39:24.616Z,100292.77
2023-03-31T04:41:55.762Z,100295.38
2023-03-31T04:44:24.242Z,100291.59
2023-03-31T04:46:52.629Z,100291.60
2023-03-31T04:49:21.110Z,100291.05
2023-03-31T04:51:49.793Z,100289.61
2023-03-31T04:54:21.134Z,100289.77
2023-03-31T04:56:49.444Z,100285.86
2023-03-31T04:59:17.590Z,100283.80
2023-03-31T05:01:46.116Z,100286.19
2023-03-31T05:04:14.756Z,100281.37
2023-03-31T05:06:43.064Z,100277.64
2023-03-31T05:09:11.415Z,100276.23
2023-03-31T05:11:39.801Z,100270.30
2023-03-31T05:14:07.976Z,100268.77
2023-03-31T05:16:36.577Z,100264.04
2023-03-31T05:19:04.945Z,100260.32
2023-03-31T05:21:33.319Z,100262.23
2023-03-31T05:24:01.504Z,100258.09
2023-03-31T05:26:29.659Z,100257.91
2023-03-31T05:28:57.940Z,100255.29
2023-03-31T05:31:27.676Z,100254.20
2023-03-31T05:33:55.933Z,100249.44
2023-03-31T05:36:24.346Z,100244.40
2023-03-31T05:38:53.096Z,100245.77
2023-03-31T05:41:21.678Z,100247.81
2023-03-31T05:43:50.060Z,100241.76
2023-03-31T05:46:18.760Z,100242.58
2023-03-31T05:48:47.080Z,100241.59
2023-03-31T05:51:15.299Z,100242.14
2023-03-31T05:53:44.209Z,100243.07
2023-03-31T05:56:12.770Z,100238.15
2023-03-31T05:58:41.458Z,100235.21
2023-03-31T06:01:12.315Z,100229.71
2023-03-31T06:03:42.538Z,100230.63
2023-03-31T06:06:13.372Z,100228.44
2023-03-31T06:08:45.788Z,100225.46
2023-03-31T06:11:17.300Z,100222.32
2023-03-31T06:13:46.386Z,100222.38
2023-03-31T06:16:17.231Z,100220.41
2023-03-31T06:18:46.206Z,100222.39
2023-03-31T06:21:17.157Z,100219.15
2023-03-31T06:23:46.349Z,100213.61
2023-03-31T06:26:17.254Z,100207.75
2023-03-31T06:28:47.041Z,100205.85
2023-03-31T06:31:18.578Z,100204.93
2023-03-31T06:33:48.150Z,100204.45
2023-03-31T06:36:18.320Z,100199.38
2023-03-31T06:38:46.778Z,100200.14
2023-03-31T06:41:17.086Z,100195.55
2023-03-31T06:43:45.378Z,100194.95
2023-03-31T06:46:14.373Z,100191.35
2023-03-31T06:48:42.953Z,100191.34
2023-03-31T06:51:12.129Z,100190.36
2023-03-31T06:53:40.983Z,100194.14
2023-03-31T06:56:09.660Z,100200.39
2023-03-31T06:58:38.187Z,100197.36
2023-03-31T07:01:07.393Z,100196.02
2023-03-31T07:03:36.522Z,100201.17
2023-03-31T07:06:05.270Z,100198.80
2023-03-31T07:08:33.445Z,100198.23
2023-03-31T07:11:02.378Z,100190.11
2023-03-31T07:13:31.146Z,100189.45
2023-03-31T07:15:59.433Z,100193.66
2023-03-31T07:18:34.899Z,100189.23
2023-03-31T07:21:07.284Z,100185.77
2023-03-31T07:23:38.508Z,100183.02
2023-03-31T07:26:06.955Z,100177.59
2023-03-31T07:28:35.835Z,100173.91
2023-03-31T07:31:11.346Z,100172.83
2023-03-31T07:33:40.076Z,100176.34
2023-03-31T07:36:12.787Z,100175.39
2023-03-31T07:38:44.466Z,100181.69
2023-03-31T07:41:15.478Z,100174.17
2023-03-31T07:43:44.888Z,100173.63
2023-03-31T07:46:24.253Z,100172.31
2023-03-31T07:48:54.619Z,100167.71
2023-03-31T07:51:25.989Z,100159.66
2023-03-31T07:53:54.272Z,100159.11
2023-03-31T07:56:25.025Z,100155.23
2023-03-31T07:58:56.815Z,100149.21
2023-03-31T08:01:26.908Z,100147.04
2023-03-31T08:03:56.233Z,100141.25
2023-03-31T08:06:26.680Z,100136.84
2023-03-31T08:08:55.268Z,100134.02
2023-03-31T08:11:24.676Z,100137.19
2023-03-31T08:13:53.462Z,100136.79
2023-03-31T08:16:21.688Z,100136.89
2023-03-31T08:18:50.817Z,100132.82
2023-03-31T08:21:19.328Z,100121.14
2023-03-31T08:23:48.515Z,100117.10
2023-03-31T08:26:22.025Z,100108.38
2023-03-31T08:28:50.863Z,100105.70
2023-03-31T08:31:21.570Z,100100.13
2023-03-31T08:33:50.637Z,100092.69
2023-03-31T08:36:18.923Z,100088.63
2023-03-31T08:38:48.189Z,100088.94
2023-03-31T08:41:16.380Z,100084.97
2023-03-31T08:43:47.775Z,100082.08
2023-03-31T08:46:18.944Z,100078.40
2023-03-31T08:48:55.191Z,100073.40
2023-03-31T08:51:39.704Z,100069.21
2023-03-31T08:54:34.186Z,100060.48
2023-03-31T08:57:06.433Z,100052.69
2023-03-31T08:59:37.762Z,100052.42
2023-03-31T09:02:48.989Z,100053.08
2023-03-31T09:05:58.972Z,100048.73
2023-03-31T09:08:39.455Z,100045.04
2023-03-31T09:11:14.896Z,100037.65
2023-03-31T09:14:05.249Z,100040.06
2023-03-31T09:16:38.888Z,100035.55
2023-03-31T09:19:18.911Z,100026.91
2023-03-31T09:21:51.997Z,100015.10
2023-03-31T09:24:25.963Z,100014.95
2023-03-31T09:27:00.855Z,100011.79
2023-03-31T09:29:47.550Z,100012.31
2023-03-31T09:32:22.872Z,100005.20
2023-03-31T09:34:57.431Z,100003.17
2023-03-31T09:37:30.505Z,100005.35
2023-03-31T09:40:02.277Z,100004.96
2023-03-31T09:42:30.948Z,100012.75
2023-03-31T09:44:59.290Z,100011.73
2023-03-31T09:47:43.846Z,100010.40
2023-03-31T09:50:12.880Z,100000.39
2023-03-31T09:52:43.354Z,99987.81
2023-03-31T09:55:39.213Z,99980.98
2023-03-31T09:58:13.892Z,99978.05
2023-03-31T10:00:44.383Z,99975.96
2023-03-31T10:03:16.280Z,99979.48
2023-03-31T10:05:53.206Z,99972.98
2023-03-31T10:08:29.397Z,99971.67
2023-03-31T10:11:09.092Z,99973.38
2023-03-31T10:13:58.994Z,99973.52
2023-03-31T10:16:30.043Z,99968.29
2023-03-31T10:19:21.638Z,99961.93
2023-03-31T10:22:06.910Z,99960.14
2023-03-31T10:24:43.897Z,99949.84
2023-03-31T10:27:21.429Z,99951.92
2023-03-31T10:29:57.141Z,99944.78
2023-03-31T10:32:45.874Z,99942.10
2023-03-31T10:35:27.424Z,99942.36
2023-03-31T10:38:07.449Z,99939.27
2023-03-31T10:40:37.017Z,99932.89
2023-03-31T10:43:21.455Z,99934.61
2023-03-31T10:45:52.463Z,99935.89
2023-03-31T10:48:29.053Z,99939.69
2023-03-31T10:51:19.150Z,99934.05
2023-03-31T10:53:52.738Z,99931.03
2023-03-31T10:56:32.289Z,99923.33
2023-03-31T10:59:33.143Z,99916.23
2023-03-31T11:02:20.051Z,99911.16
2023-03-31T11:05:01.032Z,99907.40
2023-03-31T11:07:48.898Z,99895.58
2023-03-31T11:10:30.022Z,99898.91
2023-03-31T11:13:20.114Z,99895.54
2023-03-31T11:15:59.316Z,99897.14
2023-03-31T11:18:43.093Z,99891.13
2023-03-31T11:21:28.673Z,99893.35
2023-03-31T11:24:24.860Z,99886.11
2023-03-31T11:27:09.834Z,99885.13
2023-03-31T11:29:44.809Z,99886.39
2023-03-31T11:32:43.661Z,99884.71
2023-03-31T11:35:47.819Z,99881.73
2023-03-31T11:38:30.971Z,99880.91
2023-03-31T11:41:16.774Z,99878.41
2023-03-31T11:43:49.923Z,99872.73
2023-03-31T11:46:23.931Z,99867.83
2023-03-31T11:49:00.294Z,99865.15
2023-03-31T11:51:42.727Z,99855.95
2023-03-31T11:54:20.482Z,99859.36
2023-03-31T11:56:49.425Z,99852.02
2023-03-31T11:59:21.681Z,99848.92
2023-03-31T12:02:16.050Z,99846.96
2023-03-31T12:04:49.819Z,99845.19
2023-03-31T12:07:32.261Z,99840.60
2023-03-31T12:10:19.577Z,99840.91
2023-03-31T12:13:15.102Z,99843.11
2023-03-31T12:15:48.479Z,99838.35
2023-03-31T12:18:22.849Z,99834.45
2023-03-31T12:20:55.814Z,99830.34
2023-03-31T12:23:28.789Z,99833.05
2023-03-31T12:26:16.933Z,99825.80
2023-03-31T12:28:48.113Z,99823.64
2023-03-31T12:31:22.332Z,99824.55
2023-03-31T12:34:14.329Z,99819.34
2023-03-31T12:37:15.083Z,99812.77
2023-03-31T12:39:43.143Z,99812.41
2023-03-31T12:42:40.959Z,99807.71
2023-03-31T12:45:32.412Z,99805.56
2023-03-31T12:48:19.342Z,99795.70
2023-03-31T12:51:09.973Z,99790.02
2023-03-31T12:53:44.371Z,99793.55
2023-03-31T12:56:12.749Z,99783.96
2023-03-31T12:58:43.554Z,99786.27
2023-03-31T13:01:23.626Z,99786.75
2023-03-31T13:03:54.277Z,99782.84
2023-03-31T13:06:25.719Z,99772.91
2023-03-31T13:08:58.726Z,99772.56
2023-03-31T13:11:36.721Z,99767.20
2023-03-31T13:14:17.481Z,99762.17
2023-03-31T13:16:47.246Z,99756.58
2023-03-31T13:19:31.347Z,99760.68
2023-03-31T13:22:01.974Z,99748.72
2023-03-31T13:24:32.167Z,99744.89
2023-03-31T13:27:31.402Z,99739.43
2023-03-31T13:29:59.488Z,99738.38
2023-03-31T13:32:28.317Z,99733.40
2023-03-31T13:35:05.835Z,99726.30
2023-03-31T13:37:46.626Z,99720.90
2023-03-31T13:40:27.300Z,99719.42
2023-03-31T13:43:27.363Z,99715.41
2023-03-31T13:46:08.859Z,99709.91
2023-03-31T13:48:55.910Z,99707.70
2023-03-31T13:51:43.128Z,99711.98
2023-03-31T13:54:29.634Z,99712.11
2023-03-31T13:57:03.787Z,99710.37
2023-03-31T13:59:50.765Z,99706.98
2023-03-31T14:02:45.740Z,99705.09
2023-03-31T14:05:23.260Z,99695.59
2023-03-31T14:08:15.088Z,99694.17
2023-03-31T14:10:44.399Z,99698.92
2023-03-31T14:13:18.767Z,99693.55
2023-03-31T14:15:58.247Z,99691.48
2023-03-31T14:18:51.550Z,99683.61
2023-03-31T14:21:34.124Z,99681.95
2023-03-31T14:24:35.791Z,99679.52
2023-03-31T14:27:41.642Z,99671.98
2023-03-31T14:30:42.616Z,99671.75
2023-03-31T14:33:19.609Z,99669.14
2023-03-31T14:36:08.331Z,99671.95
2023-03-31T14:38:37.274Z,99674.83
2023-03-31T14:41:05.922Z,99672.08
2023-03-31T14:43:47.743Z,99664.87
2023-03-31T14:46:20.602Z,99672.73
2023-03-31T14:48:51.249Z,99678.42
2023-03-31T14:51:31.119Z,99677.75
2023-03-31T14:54:00.903Z,99676.87
2023-03-31T14:56:38.052Z,99673.23
2023-03-31T14:59:08.168Z,99677.13
2023-03-31T15:01:38.572Z,99677.33
2023-03-31T15:04:20.390Z,99677.37
2023-03-31T15:06:53.685Z,99674.43
2023-03-31T15:09:27.408Z,99679.05
2023-03-31T15:12:01.813Z,99675.48
2023-03-31T15:14:36.932Z,99680.94
2023-03-31T15:17:05.345Z,99679.61
2023-03-31T15:19:35.795Z,99682.63
2023-03-31T15:22:19.155Z,99680.49
2023-03-31T15:24:47.476Z,99682.91
2023-03-31T15:27:23.334Z,99683.63
2023-03-31T15:29:57.533Z,99686.02
2023-03-31T15:32:31.593Z,99685.34
2023-03-31T15:37:54.797Z,99685.33
2023-03-31T15:40:52.096Z,99685.72
2023-03-31T15:44:13.051Z,99681.67
2023-03-31T15:46:42.380Z,99685.25
2023-03-31T15:49:26.402Z,99684.00
2023-03-31T15:51:57.691Z,99685.36
2023-03-31T15:54:34.891Z,99682.62
2023-03-31T15:57:05.868Z,99681.70
2023-03-31T16:02:25.645Z,99682.40
2023-03-31T16:04:59.762Z,99681.13
2023-03-31T16:07:36.662Z,99679.33
2023-03-31T16:10:18.548Z,99682.30
2023-03-31T16:12:56.302Z,99685.50
2023-03-31T16:15:41.873Z,99686.42
2023-03-31T16:18:18.081Z,99685.65
2023-03-31T16:20:54.736Z,99690.45
2023-03-31T16:23:27.993Z,99688.75
2023-03-31T16:25:56.520Z,99694.92
2023-03-31T16:28:31.650Z,99689.55
2023-03-31T16:31:02.196Z,99691.29
2023-03-31T16:33:31.991Z,99690.40
2023-03-31T16:36:02.952Z,99692.34
2023-03-31T16:38:31.407Z,99694.25
2023-03-31T16:41:00.682Z,99697.11
2023-03-31T16:43:31.405Z,99702.08
2023-03-31T16:46:03.493Z,99697.63
2023-03-31T16:48:35.149Z,99697.73
2023-03-31T16:51:04.129Z,99701.45
2023-03-31T16:53:34.637Z,99696.28
2023-03-31T16:56:05.191Z,99707.68
2023-03-31T16:58:34.408Z,99707.95
2023-03-31T17:01:03.669Z,99708.72
2023-03-31T17:03:32.585Z,99707.85
2023-03-31T17:06:07.068Z,99709.32
2023-03-31T17:08:35.294Z,99708.98
2023-03-31T17:11:07.292Z,99711.60
2023-03-31T17:13:35.536Z,99714.55
2023-03-31T17:18:54.733Z,99715.83
2023-03-31T17:21:23.923Z,99718.83
2023-03-31T17:23:52.447Z,99724.06
2023-03-31T17:26:20.993Z,99726.90
2023-03-31T17:28:49.366Z,99728.09
2023-03-31T17:31:21.220Z,99735.00
2023-03-31T17:33:49.612Z,99737.77
2023-03-31T17:36:18.197Z,99743.45
2023-03-31T17:38:46.666Z,99739.98
2023-03-31T17:41:17.813Z,99743.27
2023-03-31T17:43:47.420Z,99746.21
2023-03-31T17:46:17.522Z,99748.81
2023-03-31T17:48:45.915Z,99743.27
2023-03-31T17:51:16.814Z,99743.63
2023-03-31T17:53:46.572Z,99744.98
2023-03-31T17:56:16.810Z,99751.86
2023-03-31T17:58:46.942Z,99756.23
2023-03-31T18:01:15.320Z,99759.70
2023-03-31T18:03:45.408Z,99755.67
2023-03-31T18:06:14.911Z,99752.02
2023-03-31T18:08:43.299Z,99753.98
2023-03-31T18:11:12.084Z,99755.34
2023-03-31T18:13:40.729Z,99753.02
2023-03-31T18:16:11.169Z,99750.89
2023-03-31T18:18:39.877Z,99757.98
2023-03-31T18:21:10.923Z,99756.23
2023-03-31T18:23:40.323Z,99762.60
2023-03-31T18:26:10.940Z,99765.40
2023-03-31T18:28:43.227Z,99764.86
2023-03-31T18:31:12.495Z,99768.52
2023-03-31T18:33:41.751Z,99757.48
2023-03-31T18:36:17.090Z,99750.59
2023-03-31T18:38:49.482Z,99753.00
2023-03-31T18:41:19.469Z,99750.10
2023-03-31T18:43:48.156Z,99748.69
2023-03-31T18:46:16.791Z,99745.02
2023-03-31T18:48:45.634Z,99746.11
2023-03-31T18:51:15.125Z,99748.35
2023-03-31T18:53:44.650Z,99743.70
2023-03-31T18:56:13.424Z,99748.19
2023-03-31T18:58:42.104Z,99744.09
2023-03-31T19:01:10.329Z,99742.50
2023-03-31T19:03:39.222Z,99743.11
2023-03-31T19:06:10.455Z,99741.52
2023-03-31T19:08:42.800Z,99739.77
2023-03-31T19:11:16.313Z,99742.61
2023-03-31T19:13:47.727Z,99739.60
2023-03-31T19:16:18.093Z,99743.80
2023-03-31T19:18:46.871Z,99743.63
2023-03-31T19:21:15.239Z,99742.69
2023-03-31T19:23:43.619Z,99736.94
2023-03-31T19:26:18.317Z,99738.34
2023-03-31T19:28:48.224Z,99742.12
2023-03-31T19:31:16.335Z,99744.35
2023-03-31T19:33:44.663Z,99738.48
2023-03-31T19:36:14.238Z,99740.34
2023-03-31T19:38:43.535Z,99737.27
2023-03-31T19:41:12.105Z,99733.10
2023-03-31T19:43:42.736Z,99731.60
2023-03-31T19:46:11.153Z,99726.17
2023-03-31T19:48:40.527Z,99725.73
2023-03-31T19:51:10.021Z,99732.48
2023-03-31T19:53:39.320Z,99730.42
2023-03-31T19:56:13.661Z,99727.34
2023-03-31T19:58:42.665Z,99726.50
2023-03-31T20:01:20.627Z,99727.30
2023-03-31T20:03:53.677Z,99725.59
2023-03-31T20:06:30.515Z,99727.27
2023-03-31T20:09:00.974Z,99726.04
2023-03-31T20:11:31.209Z,99722.48
2023-03-31T20:14:01.432Z,99720.27
2023-03-31T20:16:31.376Z,99721.67
2023-03-31T20:19:05.260Z,99729.02
2023-03-31T20:21:36.901Z,99723.48
2023-03-31T20:24:06.142Z,99722.39
2023-03-31T20:26:35.161Z,99721.03
2023-03-31T20:29:04.324Z,99719.34
2023-03-31T20:31:38.520Z,99716.93
2023-03-31T20:34:12.745Z,99706.23
2023-03-31T20:36:43.287Z,99709.70
2023-03-31T20:39:14.149Z,99706.63
2023-03-31T20:41:42.729Z,99709.67
2023-03-31T20:44:15.204Z,99715.00
2023-03-31T20:46:45.386Z,99711.34
2023-03-31T20:49:14.242Z,99712.19
2023-03-31T20:51:42.910Z,99715.10
2023-03-31T20:54:12.104Z,99719.48
2023-03-31T20:56:41.817Z,99715.01
2023-03-31T20:59:15.115Z,99708.56
2023-03-31T21:01:47.210Z,99703.06
2023-03-31T21:04:17.232Z,99703.83
2023-03-31T21:06:47.315Z,99702.61
2023-03-31T21:09:16.613Z,99698.41
2023-03-31T21:11:45.023Z,99705.27
2023-03-31T21:14:15.780Z,99708.31
2023-03-31T21:16:45.038Z,99706.55
2023-03-31T21:19:13.504Z,99710.99
2023-03-31T21:21:43.318Z,99709.85
2023-03-31T21:24:12.718Z,99702.80
2023-03-31T21:26:41.320Z,99694.39
2023-03-31T21:29:09.583Z,99684.81
2023-03-31T21:31:38.051Z,99684.05
2023-03-31T21:34:06.470Z,99683.58
2023-03-31T21:36:35.165Z,99682.56
2023-03-31T21:39:03.519Z,99677.15
2023-03-31T21:41:32.199Z,99674.27
2023-03-31T21:44:02.327Z,99670.44
2023-03-31T21:46:33.819Z,99680.05
2023-03-31T21:49:03.083Z,99682.64
2023-03-31T21:51:31.556Z,99678.52
2023-03-31T21:54:00.044Z,99678.92
2023-03-31T21:56:32.081Z,99672.79
2023-03-31T21:59:02.524Z,99671.13
2023-03-31T22:01:32.246Z,99671.70
2023-03-31T22:04:00.950Z,99667.61
2023-03-31T22:06:29.528Z,99668.39
2023-03-31T22:08:57.680Z,99664.54
2023-03-31T22:11:26.879Z,99660.27
2023-03-31T22:13:55.067Z,99657.64
2023-03-31T22:16:24.191Z,99653.23
2023-03-31T22:18:55.297Z,99648.88
2023-03-31T22:21:26.393Z,99645.55
2023-03-31T22:23:59.738Z,99641.63
2023-03-31T22:26:30.159Z,99640.87
2023-03-31T22:28:59.368Z,99637.17
2023-03-31T22:31:28.586Z,99634.13
2023-03-31T22:33:57.132Z,99629.58
2023-03-31T22:36:25.452Z,99620.87
2023-03-31T22:38:53.588Z,99616.64
2023-03-31T22:41:22.067Z,99614.46
2023-03-31T22:43:51.878Z,99608.66
2023-03-31T22:46:21.046Z,99606.64
2023-03-31T22:48:50.608Z,99602.58
2023-03-31T22:51:19.064Z,99605.61
2023-03-31T22:53:51.955Z,99605.77
2023-03-31T22:56:21.450Z,99604.88
2023-03-31T22:58:53.318Z,99610.11
2023-03-31T23:01:22.088Z,99612.80
2023-03-31T23:03:50.945Z,99609.48
2023-03-31T23:06:19.381Z,99608.31
2023-03-31T23:08:49.130Z,99610.31
2023-03-31T23:11:18.994Z,99612.23
2023-03-31T23:13:47.717Z,99609.56
2023-03-31T23:16:20.120Z,99609.27
2023-03-31T23:18:48.951Z,99605.50
2023-03-31T23:21:21.801Z,99613.74
2023-03-31T23:23:53.767Z,99616.10
2023-03-31T23:26:24.357Z,99629.19
2023-03-31T23:28:54.463Z,99636.84
2023-03-31T23:31:28.536Z,99635.66
2023-03-31T23:33:58.379Z,99631.71
2023-03-31T23:36:27.365Z,99630.88
2023-03-31T23:38:56.773Z,99623.98
2023-03-31T23:41:26.598Z,99619.31
2023-03-31T23:43:56.494Z,99610.44
2023-03-31T23:46:26.212Z,99602.52
2023-03-31T23:48:54.686Z,99593.61
2023-03-31T23:51:23.640Z,99591.70
2023-03-31T23:53:52.496Z,99600.35
2023-03-31T23:56:21.151Z,99599.17
2023-03-31T23:58:49.330Z,99592.91
